sensor_id;sensor_type;location;lat;lon;timestamp;P1;durP1;ratioP1;P2;durP2;ratioP2
24107;SDS011;12280;51.362;6.694;2022-08-18T00:01:48;22.47;;;12.87;;
24107;SDS011;12280;51.362;6.694;2022-08-18T00:04:14;9.90;;;8.93;;
24107;SDS011;12280;51.362;6.694;2022-08-18T00:06:41;12.90;;;9.33;;
24107;SDS011;12280;51.362;6.694;2022-08-18T00:09:07;16.30;;;13.83;;
24107;SDS011;12280;51.362;6.694;2022-08-18T00:11:36;15.67;;;12.00;;
24107;SDS011;12280;51.362;6.694;2022-08-18T00:14:03;16.13;;;14.83;;
24107;SDS011;12280;51.362;6.694;2022-08-18T00:16:29;8.50;;;7.90;;
24107;SDS011;12280;51.362;6.694;2022-08-18T00:18:55;14.67;;;10.40;;
24107;SDS011;12280;51.362;6.694;2022-08-18T00:21:21;10.87;;;8.13;;
24107;SDS011;12280;51.362;6.694;2022-08-18T00:23:47;12.13;;;11.13;;
24107;SDS011;12280;51.362;6.694;2022-08-18T00:26:13;19.33;;;11.70;;
24107;SDS011;12280;51.362;6.694;2022-08-18T00:28:39;11.23;;;7.17;;
24107;SDS011;12280;51.362;6.694;2022-08-18T00:31:05;15.37;;;12.17;;
24107;SDS011;12280;51.362;6.694;2022-08-18T00:33:31;13.30;;;11.90;;
24107;SDS011;12280;51.362;6.694;2022-08-18T00:35:57;8.73;;;7.90;;
24107;SDS011;12280;51.362;6.694;2022-08-18T00:38:23;9.13;;;8.43;;
24107;SDS011;12280;51.362;6.694;2022-08-18T00:40:49;23.73;;;14.17;;
24107;SDS011;12280;51.362;6.694;2022-08-18T00:43:18;10.80;;;9.60;;
24107;SDS011;12280;51.362;6.694;2022-08-18T00:45:46;10.57;;;9.67;;
24107;SDS011;12280;51.362;6.694;2022-08-18T00:48:12;7.27;;;6.67;;
24107;SDS011;12280;51.362;6.694;2022-08-18T00:50:44;11.10;;;9.57;;
24107;SDS011;12280;51.362;6.694;2022-08-18T00:53:16;9.20;;;8.30;;
24107;SDS011;12280;51.362;6.694;2022-08-18T00:55:44;13.50;;;9.70;;
24107;SDS011;12280;51.362;6.694;2022-08-18T00:58:13;18.77;;;13.07;;
24107;SDS011;12280;51.362;6.694;2022-08-18T01:00:40;11.73;;;10.83;;
24107;SDS011;12280;51.362;6.694;2022-08-18T01:03:11;10.93;;;9.87;;
24107;SDS011;12280;51.362;6.694;2022-08-18T01:05:42;17.50;;;11.70;;
24107;SDS011;12280;51.362;6.694;2022-08-18T01:08:11;16.43;;;14.73;;
24107;SDS011;12280;51.362;6.694;2022-08-18T01:10:38;14.37;;;13.20;;
24107;SDS011;12280;51.362;6.694;2022-08-18T01:13:04;19.73;;;10.73;;
24107;SDS011;12280;51.362;6.694;2022-08-18T01:15:31;11.87;;;10.40;;
24107;SDS011;12280;51.362;6.694;2022-08-18T01:17:58;17.97;;;12.93;;
24107;SDS011;12280;51.362;6.694;2022-08-18T01:23:34;22.37;;;19.13;;
24107;SDS011;12280;51.362;6.694;2022-08-18T01:26:00;10.97;;;9.60;;
24107;SDS011;12280;51.362;6.694;2022-08-18T01:28:31;15.97;;;13.87;;
24107;SDS011;12280;51.362;6.694;2022-08-18T01:30:58;23.20;;;13.47;;
24107;SDS011;12280;51.362;6.694;2022-08-18T01:33:25;13.53;;;12.33;;
24107;SDS011;12280;51.362;6.694;2022-08-18T01:35:53;22.73;;;14.80;;
24107;SDS011;12280;51.362;6.694;2022-08-18T01:38:19;18.63;;;13.73;;
24107;SDS011;12280;51.362;6.694;2022-08-18T01:40:46;13.73;;;11.87;;
24107;SDS011;12280;51.362;6.694;2022-08-18T01:43:13;12.63;;;11.30;;
24107;SDS011;12280;51.362;6.694;2022-08-18T01:45:40;15.70;;;11.33;;
24107;SDS011;12280;51.362;6.694;2022-08-18T01:48:06;14.37;;;11.87;;
24107;SDS011;12280;51.362;6.694;2022-08-18T01:50:32;11.93;;;10.70;;
24107;SDS011;12280;51.362;6.694;2022-08-18T01:52:59;20.80;;;9.13;;
24107;SDS011;12280;51.362;6.694;2022-08-18T01:55:25;14.50;;;12.97;;
24107;SDS011;12280;51.362;6.694;2022-08-18T01:57:52;15.73;;;9.97;;
24107;SDS011;12280;51.362;6.694;2022-08-18T02:00:18;13.80;;;12.47;;
24107;SDS011;12280;51.362;6.694;2022-08-18T02:02:44;11.98;;;9.70;;
24107;SDS011;12280;51.362;6.694;2022-08-18T02:05:12;10.43;;;9.40;;
24107;SDS011;12280;51.362;6.694;2022-08-18T02:07:39;15.57;;;11.03;;
24107;SDS011;12280;51.362;6.694;2022-08-18T02:10:06;11.10;;;10.00;;
24107;SDS011;12280;51.362;6.694;2022-08-18T02:12:34;17.67;;;14.43;;
24107;SDS011;12280;51.362;6.694;2022-08-18T02:15:00;11.23;;;8.70;;
24107;SDS011;12280;51.362;6.694;2022-08-18T02:17:27;9.57;;;8.83;;
24107;SDS011;12280;51.362;6.694;2022-08-18T02:19:53;11.35;;;9.35;;
24107;SDS011;12280;51.362;6.694;2022-08-18T02:22:20;16.57;;;13.40;;
24107;SDS011;12280;51.362;6.694;2022-08-18T02:24:46;15.98;;;14.25;;
24107;SDS011;12280;51.362;6.694;2022-08-18T02:27:13;19.52;;;13.82;;
24107;SDS011;12280;51.362;6.694;2022-08-18T02:29:39;14.80;;;13.47;;
24107;SDS011;12280;51.362;6.694;2022-08-18T02:32:06;15.83;;;10.97;;
24107;SDS011;12280;51.362;6.694;2022-08-18T02:34:33;18.30;;;9.50;;
24107;SDS011;12280;51.362;6.694;2022-08-18T02:36:59;14.17;;;12.57;;
24107;SDS011;12280;51.362;6.694;2022-08-18T02:39:25;8.17;;;7.33;;
24107;SDS011;12280;51.362;6.694;2022-08-18T02:41:51;19.57;;;12.87;;
24107;SDS011;12280;51.362;6.694;2022-08-18T02:44:18;16.07;;;11.93;;
24107;SDS011;12280;51.362;6.694;2022-08-18T02:46:44;15.00;;;11.17;;
24107;SDS011;12280;51.362;6.694;2022-08-18T02:49:10;12.47;;;11.37;;
24107;SDS011;12280;51.362;6.694;2022-08-18T02:51:36;14.53;;;9.87;;
24107;SDS011;12280;51.362;6.694;2022-08-18T02:54:03;11.47;;;10.00;;
24107;SDS011;12280;51.362;6.694;2022-08-18T02:56:33;6.63;;;6.13;;
24107;SDS011;12280;51.362;6.694;2022-08-18T02:59:00;13.97;;;12.57;;
24107;SDS011;12280;51.362;6.694;2022-08-18T03:01:29;11.93;;;10.33;;
24107;SDS011;12280;51.362;6.694;2022-08-18T03:03:56;17.57;;;10.80;;
24107;SDS011;12280;51.362;6.694;2022-08-18T03:06:23;17.53;;;12.67;;
24107;SDS011;12280;51.362;6.694;2022-08-18T03:08:49;8.97;;;8.17;;
24107;SDS011;12280;51.362;6.694;2022-08-18T03:11:16;10.40;;;9.53;;
24107;SDS011;12280;51.362;6.694;2022-08-18T03:13:42;13.77;;;12.57;;
24107;SDS011;12280;51.362;6.694;2022-08-18T03:16:08;11.37;;;10.50;;
24107;SDS011;12280;51.362;6.694;2022-08-18T03:18:34;8.97;;;5.20;;
24107;SDS011;12280;51.362;6.694;2022-08-18T03:21:06;10.35;;;7.32;;
24107;SDS011;12280;51.362;6.694;2022-08-18T03:23:32;12.40;;;10.50;;
24107;SDS011;12280;51.362;6.694;2022-08-18T03:25:58;8.60;;;7.70;;
24107;SDS011;12280;51.362;6.694;2022-08-18T03:28:24;21.30;;;10.30;;
24107;SDS011;12280;51.362;6.694;2022-08-18T03:30:50;11.57;;;9.27;;
24107;SDS011;12280;51.362;6.694;2022-08-18T03:33:16;8.90;;;7.57;;
24107;SDS011;12280;51.362;6.694;2022-08-18T03:35:42;12.65;;;7.32;;
24107;SDS011;12280;51.362;6.694;2022-08-18T03:38:08;11.90;;;8.68;;
24107;SDS011;12280;51.362;6.694;2022-08-18T03:40:34;11.37;;;10.30;;
24107;SDS011;12280;51.362;6.694;2022-08-18T03:43:02;12.45;;;11.18;;
24107;SDS011;12280;51.362;6.694;2022-08-18T03:45:32;10.20;;;9.30;;
24107;SDS011;12280;51.362;6.694;2022-08-18T03:47:58;12.80;;;10.65;;
24107;SDS011;12280;51.362;6.694;2022-08-18T03:50:25;11.73;;;10.93;;
24107;SDS011;12280;51.362;6.694;2022-08-18T03:52:51;11.57;;;7.90;;
24107;SDS011;12280;51.362;6.694;2022-08-18T03:55:17;7.68;;;6.93;;
24107;SDS011;12280;51.362;6.694;2022-08-18T03:57:43;12.80;;;8.10;;
24107;SDS011;12280;51.362;6.694;2022-08-18T04:00:10;7.20;;;6.65;;
24107;SDS011;12280;51.362;6.694;2022-08-18T04:02:37;10.45;;;5.95;;
24107;SDS011;12280;51.362;6.694;2022-08-18T04:05:03;16.27;;;6.70;;
24107;SDS011;12280;51.362;6.694;2022-08-18T04:07:29;12.23;;;8.77;;
24107;SDS011;12280;51.362;6.694;2022-08-18T04:09:55;15.85;;;9.45;;
24107;SDS011;12280;51.362;6.694;2022-08-18T04:12:21;8.05;;;5.75;;
24107;SDS011;12280;51.362;6.694;2022-08-18T04:14:48;10.27;;;5.97;;
24107;SDS011;12280;51.362;6.694;2022-08-18T04:17:16;9.80;;;8.75;;
24107;SDS011;12280;51.362;6.694;2022-08-18T04:19:47;10.50;;;9.60;;
24107;SDS011;12280;51.362;6.694;2022-08-18T04:22:13;15.38;;;9.00;;
24107;SDS011;12280;51.362;6.694;2022-08-18T04:24:40;8.73;;;7.97;;
24107;SDS011;12280;51.362;6.694;2022-08-18T04:27:07;10.07;;;8.32;;
24107;SDS011;12280;51.362;6.694;2022-08-18T04:29:33;11.20;;;10.20;;
24107;SDS011;12280;51.362;6.694;2022-08-18T04:32:00;10.13;;;8.27;;
24107;SDS011;12280;51.362;6.694;2022-08-18T04:34:28;7.20;;;6.60;;
24107;SDS011;12280;51.362;6.694;2022-08-18T04:36:55;14.20;;;10.07;;
24107;SDS011;12280;51.362;6.694;2022-08-18T04:39:21;14.33;;;7.33;;
24107;SDS011;12280;51.362;6.694;2022-08-18T04:41:48;9.38;;;7.40;;
24107;SDS011;12280;51.362;6.694;2022-08-18T04:44:14;22.17;;;10.13;;
24107;SDS011;12280;51.362;6.694;2022-08-18T04:46:46;18.13;;;9.87;;
24107;SDS011;12280;51.362;6.694;2022-08-18T04:49:13;12.20;;;8.52;;
24107;SDS011;12280;51.362;6.694;2022-08-18T04:51:41;9.80;;;8.63;;
24107;SDS011;12280;51.362;6.694;2022-08-18T04:54:07;10.55;;;9.80;;
24107;SDS011;12280;51.362;6.694;2022-08-18T04:56:35;11.77;;;10.20;;
24107;SDS011;12280;51.362;6.694;2022-08-18T04:59:07;9.93;;;8.95;;
24107;SDS011;12280;51.362;6.694;2022-08-18T05:01:38;15.43;;;8.73;;
24107;SDS011;12280;51.362;6.694;2022-08-18T05:04:04;11.23;;;9.65;;
24107;SDS011;12280;51.362;6.694;2022-08-18T05:06:31;11.80;;;9.05;;
24107;SDS011;12280;51.362;6.694;2022-08-18T05:08:58;9.38;;;8.48;;
24107;SDS011;12280;51.362;6.694;2022-08-18T05:11:25;16.48;;;12.98;;
24107;SDS011;12280;51.362;6.694;2022-08-18T05:13:58;11.10;;;10.15;;
24107;SDS011;12280;51.362;6.694;2022-08-18T05:16:25;21.27;;;12.45;;
24107;SDS011;12280;51.362;6.694;2022-08-18T05:18:51;11.95;;;9.05;;
24107;SDS011;12280;51.362;6.694;2022-08-18T05:21:19;21.42;;;10.15;;
24107;SDS011;12280;51.362;6.694;2022-08-18T05:23:46;20.13;;;12.90;;
24107;SDS011;12280;51.362;6.694;2022-08-18T05:26:12;10.07;;;9.18;;
24107;SDS011;12280;51.362;6.694;2022-08-18T05:28:39;9.63;;;7.57;;
24107;SDS011;12280;51.362;6.694;2022-08-18T05:31:10;12.27;;;10.80;;
24107;SDS011;12280;51.362;6.694;2022-08-18T05:33:37;12.13;;;11.02;;
24107;SDS011;12280;51.362;6.694;2022-08-18T05:36:04;13.57;;;12.45;;
24107;SDS011;12280;51.362;6.694;2022-08-18T05:43:29;14.02;;;12.55;;
24107;SDS011;12280;51.362;6.694;2022-08-18T05:45:56;9.45;;;8.68;;
24107;SDS011;12280;51.362;6.694;2022-08-18T05:48:23;11.15;;;9.65;;
24107;SDS011;12280;51.362;6.694;2022-08-18T05:50:49;8.63;;;7.35;;
24107;SDS011;12280;51.362;6.694;2022-08-18T05:53:15;13.57;;;8.10;;
24107;SDS011;12280;51.362;6.694;2022-08-18T05:56:02;8.98;;;7.35;;
24107;SDS011;12280;51.362;6.694;2022-08-18T05:58:49;8.32;;;7.40;;
24107;SDS011;12280;51.362;6.694;2022-08-18T06:01:17;13.60;;;9.07;;
24107;SDS011;12280;51.362;6.694;2022-08-18T06:06:12;10.30;;;9.27;;
24107;SDS011;12280;51.362;6.694;2022-08-18T06:08:46;20.60;;;10.55;;
24107;SDS011;12280;51.362;6.694;2022-08-18T06:11:16;9.95;;;6.50;;
24107;SDS011;12280;51.362;6.694;2022-08-18T06:13:42;16.38;;;12.90;;
24107;SDS011;12280;51.362;6.694;2022-08-18T06:24:23;21.70;;;11.70;;
24107;SDS011;12280;51.362;6.694;2022-08-18T06:27:02;13.82;;;10.93;;
24107;SDS011;12280;51.362;6.694;2022-08-18T06:37:16;15.50;;;8.35;;
24107;SDS011;12280;51.362;6.694;2022-08-18T06:39:45;13.70;;;12.45;;
24107;SDS011;12280;51.362;6.694;2022-08-18T06:42:14;18.00;;;9.00;;
24107;SDS011;12280;51.362;6.694;2022-08-18T06:44:47;16.83;;;6.88;;
24107;SDS011;12280;51.362;6.694;2022-08-18T06:52:33;13.50;;;10.15;;
24107;SDS011;12280;51.362;6.694;2022-08-18T06:55:01;21.98;;;11.05;;
24107;SDS011;12280;51.362;6.694;2022-08-18T06:57:33;16.67;;;11.18;;
24107;SDS011;12280;51.362;6.694;2022-08-18T07:00:03;11.23;;;8.27;;
24107;SDS011;12280;51.362;6.694;2022-08-18T07:02:37;9.80;;;7.13;;
24107;SDS011;12280;51.362;6.694;2022-08-18T07:05:07;9.55;;;8.77;;
24107;SDS011;12280;51.362;6.694;2022-08-18T07:07:43;12.70;;;10.52;;
24107;SDS011;12280;51.362;6.694;2022-08-18T07:12:38;11.20;;;8.70;;
24107;SDS011;12280;51.362;6.694;2022-08-18T07:15:04;24.67;;;6.82;;
24107;SDS011;12280;51.362;6.694;2022-08-18T07:17:35;14.73;;;8.20;;
24107;SDS011;12280;51.362;6.694;2022-08-18T07:20:16;20.15;;;9.95;;
24107;SDS011;12280;51.362;6.694;2022-08-18T07:25:21;7.60;;;6.88;;
24107;SDS011;12280;51.362;6.694;2022-08-18T07:27:48;6.57;;;6.05;;
24107;SDS011;12280;51.362;6.694;2022-08-18T07:32:45;6.13;;;5.50;;
24107;SDS011;12280;51.362;6.694;2022-08-18T07:35:17;8.57;;;7.53;;
24107;SDS011;12280;51.362;6.694;2022-08-18T07:42:41;13.10;;;7.25;;
24107;SDS011;12280;51.362;6.694;2022-08-18T07:48:13;6.25;;;5.03;;
24107;SDS011;12280;51.362;6.694;2022-08-18T07:53:41;13.98;;;7.88;;
24107;SDS011;12280;51.362;6.694;2022-08-18T07:56:13;15.50;;;8.13;;
24107;SDS011;12280;51.362;6.694;2022-08-18T07:58:46;8.93;;;7.95;;
24107;SDS011;12280;51.362;6.694;2022-08-18T08:01:20;8.80;;;7.90;;
24107;SDS011;12280;51.362;6.694;2022-08-18T08:06:36;8.27;;;7.53;;
24107;SDS011;12280;51.362;6.694;2022-08-18T08:11:46;5.32;;;4.97;;
24107;SDS011;12280;51.362;6.694;2022-08-18T08:14:34;5.15;;;4.85;;
24107;SDS011;12280;51.362;6.694;2022-08-18T08:17:39;5.30;;;4.07;;
24107;SDS011;12280;51.362;6.694;2022-08-18T08:20:17;7.60;;;5.50;;
24107;SDS011;12280;51.362;6.694;2022-08-18T08:25:42;7.38;;;4.55;;
24107;SDS011;12280;51.362;6.694;2022-08-18T08:30:43;4.43;;;4.15;;
24107;SDS011;12280;51.362;6.694;2022-08-18T08:33:25;3.15;;;2.90;;
24107;SDS011;12280;51.362;6.694;2022-08-18T08:41:27;3.70;;;3.00;;
24107;SDS011;12280;51.362;6.694;2022-08-18T08:44:14;3.60;;;3.17;;
24107;SDS011;12280;51.362;6.694;2022-08-18T08:51:44;3.75;;;3.53;;
24107;SDS011;12280;51.362;6.694;2022-08-18T08:54:13;2.97;;;1.67;;
24107;SDS011;12280;51.362;6.694;2022-08-18T08:56:43;5.68;;;5.05;;
24107;SDS011;12280;51.362;6.694;2022-08-18T08:59:10;2.85;;;2.00;;
24107;SDS011;12280;51.362;6.694;2022-08-18T09:04:30;3.15;;;2.72;;
24107;SDS011;12280;51.362;6.694;2022-08-18T09:19:48;6.63;;;3.83;;
24107;SDS011;12280;51.362;6.694;2022-08-18T09:24:47;1.50;;;1.40;;
24107;SDS011;12280;51.362;6.694;2022-08-18T09:29:53;3.38;;;2.60;;
24107;SDS011;12280;51.362;6.694;2022-08-18T09:34:50;1.67;;;1.35;;
24107;SDS011;12280;51.362;6.694;2022-08-18T09:40:09;1.30;;;1.30;;
24107;SDS011;12280;51.362;6.694;2022-08-18T09:42:57;3.35;;;2.78;;
24107;SDS011;12280;51.362;6.694;2022-08-18T09:52:48;2.85;;;2.65;;
24107;SDS011;12280;51.362;6.694;2022-08-18T09:57:40;1.17;;;1.17;;
24107;SDS011;12280;51.362;6.694;2022-08-18T10:23:09;4.47;;;2.28;;
24107;SDS011;12280;51.362;6.694;2022-08-18T10:25:40;1.13;;;1.13;;
24107;SDS011;12280;51.362;6.694;2022-08-18T10:28:10;1.00;;;1.00;;
24107;SDS011;12280;51.362;6.694;2022-08-18T10:31:01;2.42;;;2.25;;
24107;SDS011;12280;51.362;6.694;2022-08-18T10:38:58;2.25;;;2.15;;
24107;SDS011;12280;51.362;6.694;2022-08-18T10:41:29;2.42;;;2.30;;
24107;SDS011;12280;51.362;6.694;2022-08-18T10:43:56;2.10;;;1.80;;
24107;SDS011;12280;51.362;6.694;2022-08-18T10:46:24;2.17;;;2.03;;
24107;SDS011;12280;51.362;6.694;2022-08-18T10:48:58;2.70;;;2.00;;
24107;SDS011;12280;51.362;6.694;2022-08-18T10:54:03;3.25;;;2.90;;
24107;SDS011;12280;51.362;6.694;2022-08-18T10:56:45;1.70;;;1.60;;
24107;SDS011;12280;51.362;6.694;2022-08-18T10:59:21;5.70;;;4.78;;
24107;SDS011;12280;51.362;6.694;2022-08-18T11:04:42;5.47;;;2.95;;
24107;SDS011;12280;51.362;6.694;2022-08-18T11:07:12;6.82;;;2.92;;
24107;SDS011;12280;51.362;6.694;2022-08-18T11:09:40;1.73;;;1.40;;
24107;SDS011;12280;51.362;6.694;2022-08-18T11:12:06;0.88;;;0.88;;
24107;SDS011;12280;51.362;6.694;2022-08-18T11:19:43;2.90;;;2.63;;
24107;SDS011;12280;51.362;6.694;2022-08-18T11:22:20;7.70;;;4.10;;
24107;SDS011;12280;51.362;6.694;2022-08-18T11:24:46;2.05;;;1.80;;
24107;SDS011;12280;51.362;6.694;2022-08-18T11:27:17;2.58;;;2.47;;
24107;SDS011;12280;51.362;6.694;2022-08-18T11:29:44;2.55;;;2.45;;
24107;SDS011;12280;51.362;6.694;2022-08-18T11:32:23;1.38;;;1.38;;
24107;SDS011;12280;51.362;6.694;2022-08-18T11:34:52;0.65;;;0.65;;
24107;SDS011;12280;51.362;6.694;2022-08-18T11:39:52;0.47;;;0.47;;
24107;SDS011;12280;51.362;6.694;2022-08-18T11:42:19;2.10;;;1.38;;
24107;SDS011;12280;51.362;6.694;2022-08-18T11:44:52;1.30;;;1.10;;
24107;SDS011;12280;51.362;6.694;2022-08-18T11:47:19;0.68;;;0.65;;
24107;SDS011;12280;51.362;6.694;2022-08-18T11:49:56;0.50;;;0.50;;
24107;SDS011;12280;51.362;6.694;2022-08-18T11:52:27;1.05;;;1.05;;
24107;SDS011;12280;51.362;6.694;2022-08-18T11:54:58;3.53;;;3.22;;
24107;SDS011;12280;51.362;6.694;2022-08-18T12:00:41;3.00;;;2.53;;
24107;SDS011;12280;51.362;6.694;2022-08-18T12:03:53;2.20;;;2.08;;
24107;SDS011;12280;51.362;6.694;2022-08-18T12:05:56;6.28;;;3.50;;
24107;SDS011;12280;51.362;6.694;2022-08-18T12:08:29;6.57;;;5.03;;
24107;SDS011;12280;51.362;6.694;2022-08-18T12:11:02;1.98;;;1.20;;
24107;SDS011;12280;51.362;6.694;2022-08-18T12:13:28;0.75;;;0.75;;
24107;SDS011;12280;51.362;6.694;2022-08-18T12:16:15;3.08;;;2.35;;
24107;SDS011;12280;51.362;6.694;2022-08-18T12:18:41;2.78;;;2.53;;
24107;SDS011;12280;51.362;6.694;2022-08-18T12:21:08;3.15;;;2.00;;
24107;SDS011;12280;51.362;6.694;2022-08-18T12:23:34;2.28;;;2.17;;
24107;SDS011;12280;51.362;6.694;2022-08-18T12:26:01;4.35;;;3.25;;
24107;SDS011;12280;51.362;6.694;2022-08-18T12:28:27;3.90;;;3.55;;
24107;SDS011;12280;51.362;6.694;2022-08-18T12:30:53;3.88;;;3.00;;
24107;SDS011;12280;51.362;6.694;2022-08-18T12:33:19;2.90;;;2.42;;
24107;SDS011;12280;51.362;6.694;2022-08-18T12:35:46;3.10;;;2.70;;
24107;SDS011;12280;51.362;6.694;2022-08-18T12:38:12;3.70;;;2.00;;
24107;SDS011;12280;51.362;6.694;2022-08-18T12:40:38;4.00;;;2.28;;
24107;SDS011;12280;51.362;6.694;2022-08-18T12:43:04;2.38;;;2.28;;
24107;SDS011;12280;51.362;6.694;2022-08-18T12:45:31;0.57;;;0.57;;
24107;SDS011;12280;51.362;6.694;2022-08-18T12:47:57;2.42;;;2.33;;
24107;SDS011;12280;51.362;6.694;2022-08-18T12:50:26;2.83;;;2.00;;
24107;SDS011;12280;51.362;6.694;2022-08-18T12:52:55;3.50;;;2.30;;
24107;SDS011;12280;51.362;6.694;2022-08-18T12:55:21;1.27;;;1.27;;
24107;SDS011;12280;51.362;6.694;2022-08-18T12:57:47;2.00;;;1.77;;
24107;SDS011;12280;51.362;6.694;2022-08-18T13:00:13;1.10;;;1.10;;
24107;SDS011;12280;51.362;6.694;2022-08-18T13:02:39;0.45;;;0.43;;
24107;SDS011;12280;51.362;6.694;2022-08-18T13:05:05;2.75;;;1.65;;
24107;SDS011;12280;51.362;6.694;2022-08-18T13:07:31;1.77;;;1.35;;
24107;SDS011;12280;51.362;6.694;2022-08-18T13:09:58;1.23;;;1.00;;
24107;SDS011;12280;51.362;6.694;2022-08-18T13:12:25;1.52;;;1.45;;
24107;SDS011;12280;51.362;6.694;2022-08-18T13:14:51;1.02;;;1.02;;
24107;SDS011;12280;51.362;6.694;2022-08-18T13:17:19;1.67;;;0.73;;
24107;SDS011;12280;51.362;6.694;2022-08-18T13:19:45;1.55;;;1.02;;
24107;SDS011;12280;51.362;6.694;2022-08-18T13:22:11;1.05;;;1.05;;
24107;SDS011;12280;51.362;6.694;2022-08-18T13:24:37;4.88;;;1.80;;
24107;SDS011;12280;51.362;6.694;2022-08-18T13:27:03;1.10;;;1.10;;
24107;SDS011;12280;51.362;6.694;2022-08-18T13:29:29;3.92;;;1.60;;
24107;SDS011;12280;51.362;6.694;2022-08-18T13:31:55;1.70;;;1.60;;
24107;SDS011;12280;51.362;6.694;2022-08-18T13:34:26;2.67;;;2.53;;
24107;SDS011;12280;51.362;6.694;2022-08-18T13:36:53;1.20;;;1.20;;
24107;SDS011;12280;51.362;6.694;2022-08-18T13:39:20;1.15;;;1.10;;
24107;SDS011;12280;51.362;6.694;2022-08-18T13:41:47;0.65;;;0.65;;
24107;SDS011;12280;51.362;6.694;2022-08-18T13:44:15;1.23;;;1.00;;
24107;SDS011;12280;51.362;6.694;2022-08-18T13:46:42;0.88;;;0.88;;
24107;SDS011;12280;51.362;6.694;2022-08-18T13:49:15;0.40;;;0.40;;
24107;SDS011;12280;51.362;6.694;2022-08-18T13:51:42;1.02;;;1.02;;
24107;SDS011;12280;51.362;6.694;2022-08-18T13:54:09;3.85;;;1.88;;
24107;SDS011;12280;51.362;6.694;2022-08-18T13:56:38;1.67;;;1.58;;
24107;SDS011;12280;51.362;6.694;2022-08-18T13:59:04;2.63;;;2.53;;
24107;SDS011;12280;51.362;6.694;2022-08-18T14:01:31;0.55;;;0.55;;
24107;SDS011;12280;51.362;6.694;2022-08-18T14:03:57;0.85;;;0.85;;
24107;SDS011;12280;51.362;6.694;2022-08-18T14:06:23;0.98;;;0.57;;
24107;SDS011;12280;51.362;6.694;2022-08-18T14:08:51;1.65;;;1.60;;
24107;SDS011;12280;51.362;6.694;2022-08-18T14:11:18;0.60;;;0.60;;
24107;SDS011;12280;51.362;6.694;2022-08-18T14:13:46;1.58;;;1.50;;
24107;SDS011;12280;51.362;6.694;2022-08-18T14:16:12;1.13;;;1.13;;
24107;SDS011;12280;51.362;6.694;2022-08-18T14:18:38;1.88;;;1.77;;
24107;SDS011;12280;51.362;6.694;2022-08-18T14:21:03;2.50;;;0.98;;
24107;SDS011;12280;51.362;6.694;2022-08-18T14:23:48;1.55;;;1.45;;
24107;SDS011;12280;51.362;6.694;2022-08-18T14:26:33;1.85;;;1.38;;
24107;SDS011;12280;51.362;6.694;2022-08-18T14:29:15;1.10;;;1.05;;
24107;SDS011;12280;51.362;6.694;2022-08-18T14:31:41;1.50;;;1.38;;
24107;SDS011;12280;51.362;6.694;2022-08-18T14:34:07;0.98;;;0.98;;
24107;SDS011;12280;51.362;6.694;2022-08-18T14:36:33;1.73;;;1.63;;
24107;SDS011;12280;51.362;6.694;2022-08-18T14:39:00;1.70;;;1.60;;
24107;SDS011;12280;51.362;6.694;2022-08-18T14:41:26;1.00;;;0.55;;
24107;SDS011;12280;51.362;6.694;2022-08-18T14:43:52;1.33;;;1.23;;
24107;SDS011;12280;51.362;6.694;2022-08-18T14:46:20;0.55;;;0.55;;
24107;SDS011;12280;51.362;6.694;2022-08-18T14:48:46;0.80;;;0.80;;
24107;SDS011;12280;51.362;6.694;2022-08-18T14:51:13;1.50;;;1.50;;
24107;SDS011;12280;51.362;6.694;2022-08-18T14:53:39;0.68;;;0.68;;
24107;SDS011;12280;51.362;6.694;2022-08-18T14:56:05;2.55;;;1.05;;
24107;SDS011;12280;51.362;6.694;2022-08-18T14:58:32;0.77;;;0.77;;
24107;SDS011;12280;51.362;6.694;2022-08-18T15:00:59;0.95;;;0.75;;
24107;SDS011;12280;51.362;6.694;2022-08-18T15:03:27;1.75;;;1.40;;
24107;SDS011;12280;51.362;6.694;2022-08-18T15:05:53;1.38;;;0.63;;
24107;SDS011;12280;51.362;6.694;2022-08-18T15:08:20;1.10;;;1.00;;
24107;SDS011;12280;51.362;6.694;2022-08-18T15:10:46;4.38;;;1.08;;
24107;SDS011;12280;51.362;6.694;2022-08-18T15:13:12;0.35;;;0.35;;
24107;SDS011;12280;51.362;6.694;2022-08-18T15:15:38;1.55;;;1.33;;
24107;SDS011;12280;51.362;6.694;2022-08-18T15:18:06;2.45;;;1.55;;
24107;SDS011;12280;51.362;6.694;2022-08-18T15:20:32;0.32;;;0.32;;
24107;SDS011;12280;51.362;6.694;2022-08-18T15:23:18;4.05;;;1.50;;
24107;SDS011;12280;51.362;6.694;2022-08-18T15:26:02;0.85;;;0.85;;
24107;SDS011;12280;51.362;6.694;2022-08-18T15:28:28;2.65;;;1.95;;
24107;SDS011;12280;51.362;6.694;2022-08-18T15:30:54;4.55;;;1.13;;
24107;SDS011;12280;51.362;6.694;2022-08-18T15:33:20;8.52;;;1.30;;
24107;SDS011;12280;51.362;6.694;2022-08-18T15:35:48;0.55;;;0.55;;
24107;SDS011;12280;51.362;6.694;2022-08-18T15:38:18;1.35;;;1.08;;
24107;SDS011;12280;51.362;6.694;2022-08-18T15:40:52;1.02;;;0.98;;
24107;SDS011;12280;51.362;6.694;2022-08-18T15:43:19;0.60;;;0.60;;
24107;SDS011;12280;51.362;6.694;2022-08-18T15:45:45;0.85;;;0.85;;
24107;SDS011;12280;51.362;6.694;2022-08-18T15:48:13;2.15;;;2.05;;
24107;SDS011;12280;51.362;6.694;2022-08-18T15:50:39;0.55;;;0.52;;
24107;SDS011;12280;51.362;6.694;2022-08-18T15:53:06;1.00;;;1.00;;
24107;SDS011;12280;51.362;6.694;2022-08-18T15:55:33;1.20;;;1.20;;
24107;SDS011;12280;51.362;6.694;2022-08-18T15:57:59;1.90;;;1.80;;
24107;SDS011;12280;51.362;6.694;2022-08-18T16:00:26;0.90;;;0.90;;
24107;SDS011;12280;51.362;6.694;2022-08-18T16:02:54;0.60;;;0.52;;
24107;SDS011;12280;51.362;6.694;2022-08-18T16:05:22;1.65;;;1.55;;
24107;SDS011;12280;51.362;6.694;2022-08-18T16:07:49;0.88;;;0.88;;
24107;SDS011;12280;51.362;6.694;2022-08-18T16:10:16;2.70;;;1.42;;
24107;SDS011;12280;51.362;6.694;2022-08-18T16:12:42;0.60;;;0.60;;
24107;SDS011;12280;51.362;6.694;2022-08-18T16:15:08;2.63;;;1.63;;
24107;SDS011;12280;51.362;6.694;2022-08-18T16:17:34;0.70;;;0.70;;
24107;SDS011;12280;51.362;6.694;2022-08-18T16:20:01;0.45;;;0.45;;
24107;SDS011;12280;51.362;6.694;2022-08-18T16:22:27;0.60;;;0.60;;
24107;SDS011;12280;51.362;6.694;2022-08-18T16:24:53;0.85;;;0.85;;
24107;SDS011;12280;51.362;6.694;2022-08-18T16:27:19;1.27;;;1.20;;
24107;SDS011;12280;51.362;6.694;2022-08-18T16:29:45;0.57;;;0.57;;
24107;SDS011;12280;51.362;6.694;2022-08-18T16:32:12;1.17;;;1.13;;
24107;SDS011;12280;51.362;6.694;2022-08-18T16:34:38;0.47;;;0.47;;
24107;SDS011;12280;51.362;6.694;2022-08-18T16:37:05;1.67;;;1.58;;
24107;SDS011;12280;51.362;6.694;2022-08-18T16:39:33;2.28;;;1.20;;
24107;SDS011;12280;51.362;6.694;2022-08-18T16:41:59;0.20;;;0.20;;
24107;SDS011;12280;51.362;6.694;2022-08-18T16:44:25;0.93;;;0.93;;
24107;SDS011;12280;51.362;6.694;2022-08-18T16:46:53;5.95;;;1.65;;
24107;SDS011;12280;51.362;6.694;2022-08-18T16:49:19;1.55;;;0.90;;
24107;SDS011;12280;51.362;6.694;2022-08-18T16:51:45;1.23;;;1.13;;
24107;SDS011;12280;51.362;6.694;2022-08-18T16:54:11;1.60;;;1.25;;
24107;SDS011;12280;51.362;6.694;2022-08-18T16:56:38;0.98;;;0.98;;
24107;SDS011;12280;51.362;6.694;2022-08-18T16:59:04;0.70;;;0.70;;
24107;SDS011;12280;51.362;6.694;2022-08-18T17:01:49;0.80;;;0.80;;
24107;SDS011;12280;51.362;6.694;2022-08-18T17:04:33;1.27;;;0.98;;
24107;SDS011;12280;51.362;6.694;2022-08-18T17:07:01;0.35;;;0.35;;
24107;SDS011;12280;51.362;6.694;2022-08-18T17:09:28;2.58;;;1.90;;
24107;SDS011;12280;51.362;6.694;2022-08-18T17:11:54;0.45;;;0.45;;
24107;SDS011;12280;51.362;6.694;2022-08-18T17:14:22;0.80;;;0.80;;
24107;SDS011;12280;51.362;6.694;2022-08-18T17:16:49;0.80;;;0.80;;
24107;SDS011;12280;51.362;6.694;2022-08-18T17:19:19;1.48;;;1.42;;
24107;SDS011;12280;51.362;6.694;2022-08-18T17:21:45;1.13;;;1.13;;